Skip Navigation Links
NOAA logo - Click to go to the NOAA homepage
NOAA's National Weather Service
Alaska Aviation Weather Unit
  NWS logo - Click to go to the NWS homepage
Left Navbar Graphic     08 AKDT = 16 GMT

   
NOAA is celebrating 200 years of science, service, and stewardship. Visit the NOAA 200th celebration Web site to learn more.
USA.gov is the U.S. Government's official Web portal to all Federal, state and local government Web resources and services.
Facebook
NWS on Facebook

Important Change Regarding the AAWU Web Presence

 

Over the last several months, the AAWU has been working to navigate its webpages to a nationally supported server. Security, as well as other needs, have necessitated the change.  In the process, we have made an effort to enhance the functionality of our website, as well as some of our products. As of June 20, 2017, aawu.arh.noaa.gov will be discontinued. The new AAWU web address is weather.gov/aawu. It is now live and will run in-parallel with the old site until it is discontinued. Please send any feedback or questions regarding the new webpages to nws.ar.aawu.webauthors@noaa.gov.  Thank you for your patience during this time of transition.
AAWU Home :: Display TAF Add Bookmark
TAF CYDA 291538Z 2916/2923 VRB03KT P6SM SCT060 BKN140
    FM292100 24006KT P6SM SCT070 TEMPO 2921/2923 BKN070
    RMK NXT FCST BY 291800Z=

METAR CYDA 291400Z 10003KT 040V120 20SM FEW040 FEW050 BKN130 OVC180 13/03 A2972 RMK CF1SC2AS5AC1 CF TR CLIMAT 22.6/7.0/0.0 SLP073 DENSITY ALT 1400FT= METAR CYDA 291500Z VRB02KT 20SM FEW040 SCT055 OVC140 14/03 A2972 RMK CF1SC4AS4 CF TR SLP073 DENSITY ALT 1500FT= METAR CYDA 291600Z 00000KT 20SM BKN090 BKN150 OVC230 15/04 A2971 RMK AC5AC2CI1 SLP069 DENSITY ALT 1700FT=
 Alaska TAF Map

NOAA's National Weather Service
Alaska Aviation Weather Unit
6930 Sand Lake Road
Anchorage, AK 99502-1845
Disclaimer
Credits
Glossary
Privacy Policy
About Us
Career Opportunities
Contact AAWU Internet Services Site last modified: April, 17th 2012